createdAt,value
2023-01-30T00:01:20.959Z,38.53
2023-01-30T00:03:48.441Z,37.75
2023-01-30T00:06:16.527Z,37.28
2023-01-30T00:08:44.159Z,38.67
2023-01-30T00:11:13.191Z,37.00
2023-01-30T00:13:41.669Z,37.90
2023-01-30T00:16:10.193Z,36.50
2023-01-30T00:18:39.419Z,36.53
2023-01-30T00:21:08.927Z,35.63
2023-01-30T00:23:37.222Z,38.88
2023-01-30T00:26:06.279Z,37.75
2023-01-30T00:28:34.129Z,37.80
2023-01-30T00:31:01.686Z,38.70
2023-01-30T00:33:29.541Z,41.75
2023-01-30T00:35:57.690Z,41.97
2023-01-30T00:38:25.747Z,41.75
2023-01-30T00:40:53.229Z,42.70
2023-01-30T00:43:40.492Z,44.58
2023-01-30T00:46:51.971Z,40.92
2023-01-30T00:49:20.199Z,40.53
2023-01-30T00:51:47.676Z,44.92
2023-01-30T00:54:15.242Z,42.10
2023-01-30T00:56:42.712Z,40.80
2023-01-30T00:59:10.092Z,40.85
2023-01-30T01:01:38.448Z,40.55
2023-01-30T01:04:07.511Z,40.42
2023-01-30T01:06:34.952Z,40.85
2023-01-30T01:09:03.118Z,37.30
2023-01-30T01:11:30.712Z,38.70
2023-01-30T01:14:00.861Z,38.30
2023-01-30T01:16:30.879Z,39.55
2023-01-30T01:18:59.807Z,38.67
2023-01-30T01:21:27.713Z,36.75
2023-01-30T01:23:58.244Z,39.03
2023-01-30T01:26:25.946Z,37.10
2023-01-30T01:28:56.968Z,38.08
2023-01-30T01:31:24.872Z,36.80
2023-01-30T01:33:52.446Z,38.40
2023-01-30T01:36:49.827Z,38.13
2023-01-30T01:39:07.562Z,37.10
2023-01-30T01:41:34.945Z,39.10
2023-01-30T01:44:06.752Z,41.50
2023-01-30T01:46:56.745Z,38.40
2023-01-30T01:49:31.846Z,40.15
2023-01-30T01:52:13.182Z,41.05
2023-01-30T01:54:47.037Z,41.07
2023-01-30T01:57:28.826Z,39.40
2023-01-30T02:00:05.762Z,42.15
2023-01-30T02:02:42.761Z,42.75
2023-01-30T02:05:14.060Z,42.00
2023-01-30T02:07:52.827Z,41.10
2023-01-30T02:10:28.203Z,41.33
2023-01-30T02:12:58.566Z,41.75
2023-01-30T02:15:26.180Z,40.58
2023-01-30T02:17:55.523Z,40.05
2023-01-30T02:20:43.710Z,39.67
2023-01-30T02:23:35.545Z,44.30
2023-01-30T02:26:08.948Z,41.03
2023-01-30T02:29:23.170Z,41.90
2023-01-30T02:32:01.148Z,42.15
2023-01-30T02:34:40.685Z,41.05
2023-01-30T02:37:34.519Z,42.33
2023-01-30T02:40:33.450Z,39.97
2023-01-30T02:43:21.902Z,41.38
2023-01-30T02:46:22.407Z,43.40
2023-01-30T02:48:50.275Z,43.95
2023-01-30T02:51:29.894Z,40.55
2023-01-30T02:53:58.872Z,41.95
2023-01-30T02:56:27.420Z,41.20
2023-01-30T02:59:08.862Z,42.97
2023-01-30T03:01:42.208Z,41.40
2023-01-30T03:04:31.870Z,40.40
2023-01-30T03:07:31.324Z,39.83
2023-01-30T03:10:26.048Z,36.67
2023-01-30T03:13:20.743Z,38.70
2023-01-30T03:15:54.277Z,38.63
2023-01-30T03:18:22.762Z,38.38
2023-01-30T03:20:51.533Z,42.95
2023-01-30T03:23:19.610Z,42.95
2023-01-30T03:25:48.923Z,42.33
2023-01-30T03:28:19.618Z,40.50
2023-01-30T03:30:47.353Z,42.15
2023-01-30T03:33:15.099Z,40.83
2023-01-30T03:35:47.915Z,41.58
2023-01-30T03:38:15.402Z,42.53
2023-01-30T03:40:43.085Z,44.47
2023-01-30T03:43:10.969Z,42.75
2023-01-30T03:45:38.455Z,44.97
2023-01-30T03:48:06.199Z,44.90
2023-01-30T03:50:34.011Z,45.15
2023-01-30T03:53:01.997Z,44.22
2023-01-30T03:55:30.240Z,47.08
2023-01-30T03:57:58.340Z,50.15
2023-01-30T04:00:31.474Z,39.45
2023-01-30T04:02:59.083Z,45.58
2023-01-30T04:05:27.415Z,47.13
2023-01-30T04:08:00.696Z,46.60
2023-01-30T04:10:28.183Z,44.80
2023-01-30T04:12:55.706Z,44.63
2023-01-30T04:15:23.706Z,46.22
2023-01-30T04:18:14.327Z,43.60
2023-01-30T04:21:10.933Z,45.95
2023-01-30T04:23:40.161Z,47.45
2023-01-30T04:26:09.263Z,48.08
2023-01-30T04:28:39.211Z,52.17
2023-01-30T04:31:08.281Z,48.78
2023-01-30T04:33:43.157Z,47.78
2023-01-30T04:36:12.775Z,45.08
2023-01-30T04:38:41.477Z,44.83
2023-01-30T04:41:08.981Z,45.05
2023-01-30T04:43:40.112Z,43.10
2023-01-30T04:46:26.001Z,45.92
2023-01-30T04:48:53.612Z,45.45
2023-01-30T04:51:21.170Z,48.20
2023-01-30T04:53:48.878Z,45.67
2023-01-30T04:56:16.343Z,47.42
2023-01-30T04:58:44.389Z,47.70
2023-01-30T05:01:16.134Z,45.78
2023-01-30T05:03:44.435Z,46.78
2023-01-30T05:06:11.848Z,45.20
2023-01-30T05:08:39.219Z,45.70
2023-01-30T05:11:07.160Z,44.58
2023-01-30T05:13:34.571Z,46.25
2023-01-30T05:16:01.936Z,46.95
2023-01-30T05:18:29.348Z,44.53
2023-01-30T05:21:07.035Z,44.85
2023-01-30T05:23:34.968Z,41.05
2023-01-30T05:26:02.921Z,42.25
2023-01-30T05:28:30.507Z,39.85
2023-01-30T05:31:05.953Z,40.95
2023-01-30T05:33:33.795Z,39.15
2023-01-30T05:36:01.423Z,39.58
2023-01-30T05:38:29.151Z,38.15
2023-01-30T05:41:08.028Z,39.00
2023-01-30T05:43:35.675Z,39.55
2023-01-30T05:46:05.121Z,38.45
2023-01-30T05:48:34.012Z,39.75
2023-01-30T05:51:01.854Z,40.85
2023-01-30T05:53:32.070Z,41.40
2023-01-30T05:56:01.709Z,41.35
2023-01-30T05:58:29.651Z,39.70
2023-01-30T06:01:05.389Z,37.08
2023-01-30T06:03:33.303Z,38.78
2023-01-30T06:06:02.573Z,39.03
2023-01-30T06:08:30.436Z,40.05
2023-01-30T06:11:06.047Z,41.03
2023-01-30T06:13:33.915Z,41.90
2023-01-30T06:16:01.386Z,43.05
2023-01-30T06:18:29.048Z,39.97
2023-01-30T06:20:56.473Z,37.95
2023-01-30T06:23:24.475Z,58.88
2023-01-30T06:25:53.946Z,41.33
2023-01-30T06:28:22.937Z,41.35
2023-01-30T06:30:50.538Z,39.20
2023-01-30T06:33:19.862Z,43.45
2023-01-30T06:35:50.504Z,46.75
2023-01-30T06:38:19.593Z,44.75
2023-01-30T06:40:49.491Z,51.65
2023-01-30T06:43:17.948Z,53.08
2023-01-30T06:45:45.416Z,52.80
2023-01-30T06:48:12.855Z,53.40
2023-01-30T06:50:40.325Z,54.00
2023-01-30T06:53:08.884Z,51.75
2023-01-30T06:55:36.628Z,51.30
2023-01-30T06:58:08.136Z,52.47
2023-01-30T07:00:39.602Z,50.83
2023-01-30T07:03:14.552Z,50.65
2023-01-30T07:05:43.322Z,49.05
2023-01-30T07:08:11.111Z,47.70
2023-01-30T07:10:38.833Z,47.38
2023-01-30T07:13:06.312Z,46.53
2023-01-30T07:15:34.010Z,44.88
2023-01-30T07:18:01.420Z,46.20
2023-01-30T07:20:31.167Z,46.88
2023-01-30T07:22:58.855Z,44.78
2023-01-30T07:25:28.022Z,52.17
2023-01-30T07:28:01.128Z,55.30
2023-01-30T07:30:30.810Z,52.63
2023-01-30T07:33:00.054Z,48.63
2023-01-30T07:35:32.373Z,46.88
2023-01-30T07:37:59.985Z,43.88
2023-01-30T07:40:27.749Z,40.05
2023-01-30T07:42:59.769Z,36.50
2023-01-30T07:45:42.016Z,34.55
2023-01-30T07:48:11.903Z,34.05
2023-01-30T07:50:40.053Z,31.83
2023-01-30T07:53:10.324Z,31.52
2023-01-30T07:55:38.941Z,30.13
2023-01-30T07:58:06.352Z,29.98
2023-01-30T08:00:34.349Z,30.02
2023-01-30T08:03:01.772Z,27.92
2023-01-30T08:05:29.262Z,30.55
2023-01-30T08:07:57.108Z,31.00
2023-01-30T08:10:25.020Z,31.45
2023-01-30T08:12:52.615Z,35.45
2023-01-30T08:15:21.926Z,33.92
2023-01-30T08:17:57.337Z,36.67
2023-01-30T08:20:26.957Z,36.35
2023-01-30T08:22:55.377Z,36.45
2023-01-30T08:25:23.723Z,35.53
2023-01-30T08:27:51.745Z,35.75
2023-01-30T08:30:21.012Z,32.65
2023-01-30T08:32:48.829Z,34.35
2023-01-30T08:35:16.463Z,31.83
2023-01-30T08:37:44.102Z,33.67
2023-01-30T08:40:12.120Z,37.05
2023-01-30T08:42:39.548Z,35.47
2023-01-30T08:45:07.584Z,35.67
2023-01-30T08:47:35.707Z,35.70
2023-01-30T08:50:05.006Z,37.95
2023-01-30T08:52:33.485Z,42.78
2023-01-30T08:55:00.967Z,42.25
2023-01-30T08:57:28.602Z,38.08
2023-01-30T08:59:56.084Z,38.70
2023-01-30T09:02:23.743Z,38.25
2023-01-30T09:04:51.235Z,37.58
2023-01-30T09:07:19.410Z,35.35
2023-01-30T09:09:48.573Z,34.03
2023-01-30T09:12:16.074Z,32.13
2023-01-30T09:14:43.470Z,31.02
2023-01-30T09:17:10.916Z,32.25
2023-01-30T09:19:38.717Z,31.80
2023-01-30T09:22:07.675Z,45.28
2023-01-30T09:24:35.259Z,30.85
2023-01-30T09:27:02.974Z,32.75
2023-01-30T09:29:30.413Z,31.27
2023-01-30T09:31:58.780Z,29.10
2023-01-30T09:34:28.683Z,32.33
2023-01-30T09:36:57.483Z,34.72
2023-01-30T09:39:24.934Z,32.22
2023-01-30T09:42:04.724Z,31.85
2023-01-30T09:44:41.116Z,31.05
2023-01-30T09:47:11.546Z,31.80
2023-01-30T09:50:06.285Z,31.63
2023-01-30T09:52:56.132Z,30.30
2023-01-30T09:55:33.548Z,30.48
2023-01-30T09:58:04.161Z,32.08
2023-01-30T10:00:45.140Z,25.73
2023-01-30T10:03:17.304Z,32.30
2023-01-30T10:06:06.917Z,33.33
2023-01-30T10:08:49.055Z,33.83
2023-01-30T10:11:41.902Z,31.90
2023-01-30T10:14:50.885Z,34.03
2023-01-30T10:17:42.048Z,34.33
2023-01-30T10:20:22.229Z,34.15
2023-01-30T10:23:02.577Z,34.42
2023-01-30T10:25:55.127Z,35.35
2023-01-30T10:31:05.771Z,36.13
2023-01-30T10:33:52.216Z,34.35
2023-01-30T10:36:35.661Z,37.92
2023-01-30T10:39:10.228Z,38.92
2023-01-30T10:41:49.634Z,39.05
2023-01-30T10:44:19.068Z,40.33
2023-01-30T10:46:49.656Z,37.60
2023-01-30T10:49:38.304Z,39.35
2023-01-30T10:52:43.779Z,37.33
2023-01-30T10:55:37.245Z,39.38
2023-01-30T10:58:39.296Z,38.72
2023-01-30T11:01:16.940Z,40.90
2023-01-30T11:03:52.814Z,39.45
2023-01-30T11:06:26.899Z,40.83
2023-01-30T11:08:57.112Z,39.55
2023-01-30T11:11:31.034Z,40.30
2023-01-30T11:14:12.670Z,40.47
2023-01-30T11:16:44.917Z,39.90
2023-01-30T11:19:22.229Z,38.13
2023-01-30T11:21:55.123Z,39.95
2023-01-30T11:24:39.312Z,41.50
2023-01-30T11:27:17.544Z,40.17
2023-01-30T11:29:45.207Z,38.25
2023-01-30T11:32:28.352Z,37.40
2023-01-30T11:35:07.955Z,36.33
2023-01-30T11:37:37.826Z,34.85
2023-01-30T11:40:17.792Z,37.10
2023-01-30T11:42:47.885Z,37.92
2023-01-30T11:45:18.554Z,36.22
2023-01-30T11:47:59.176Z,37.75
2023-01-30T11:50:39.266Z,35.70
2023-01-30T11:53:48.968Z,35.97
2023-01-30T11:56:21.129Z,37.40
2023-01-30T12:01:28.470Z,34.22
2023-01-30T12:03:57.643Z,35.80
2023-01-30T12:06:34.362Z,35.00
2023-01-30T12:09:03.603Z,37.20
2023-01-30T12:11:37.292Z,33.05
2023-01-30T12:14:32.416Z,34.92
2023-01-30T12:17:11.693Z,33.22
2023-01-30T12:20:10.566Z,34.85
2023-01-30T12:22:58.546Z,33.38
2023-01-30T12:25:28.248Z,34.10
2023-01-30T12:28:32.971Z,33.83
2023-01-30T12:31:27.193Z,33.70
2023-01-30T12:33:55.359Z,34.30
2023-01-30T12:36:37.747Z,33.72
2023-01-30T12:42:23.723Z,33.35
2023-01-30T12:45:06.923Z,32.40
2023-01-30T12:47:46.453Z,32.40
2023-01-30T12:50:21.403Z,33.90
2023-01-30T12:53:18.033Z,32.35
2023-01-30T12:55:54.000Z,31.60
2023-01-30T12:58:39.320Z,34.55
2023-01-30T13:01:44.964Z,33.08
2023-01-30T13:04:22.033Z,34.85
2023-01-30T13:07:05.120Z,35.30
2023-01-30T13:09:46.451Z,33.47
2023-01-30T13:12:37.647Z,32.97
2023-01-30T13:15:19.849Z,33.75
2023-01-30T13:18:04.837Z,34.60
2023-01-30T13:20:37.770Z,35.05
2023-01-30T13:23:14.360Z,34.17
2023-01-30T13:26:06.711Z,34.38
2023-01-30T13:28:41.749Z,36.10
2023-01-30T13:31:14.320Z,35.15
2023-01-30T13:33:44.784Z,34.25
2023-01-30T13:36:18.476Z,33.17
2023-01-30T13:38:54.190Z,34.17
2023-01-30T13:41:33.835Z,34.10
2023-01-30T13:44:07.019Z,36.70
2023-01-30T13:46:38.496Z,33.72
2023-01-30T13:49:20.022Z,33.60
2023-01-30T13:51:50.951Z,24.80
2023-01-30T13:54:27.466Z,34.20
2023-01-30T13:57:14.823Z,33.65
2023-01-30T14:00:22.307Z,34.45
2023-01-30T14:03:08.058Z,33.03
2023-01-30T14:05:55.514Z,34.45
2023-01-30T14:08:47.647Z,33.50
2023-01-30T14:11:37.411Z,32.63
2023-01-30T14:14:23.404Z,32.50
2023-01-30T14:16:56.728Z,31.20
2023-01-30T14:19:33.057Z,32.35
2023-01-30T14:22:06.194Z,32.80
2023-01-30T14:24:33.798Z,31.70
2023-01-30T14:27:02.757Z,33.55
2023-01-30T14:29:41.870Z,34.63
2023-01-30T14:32:15.572Z,35.03
2023-01-30T14:34:50.366Z,32.10
2023-01-30T14:37:38.952Z,31.90
2023-01-30T14:40:21.340Z,32.13
2023-01-30T14:43:14.933Z,34.80
2023-01-30T14:46:03.688Z,31.73
2023-01-30T14:48:39.824Z,34.15
2023-01-30T14:51:26.228Z,32.08
2023-01-30T14:54:25.479Z,31.55
2023-01-30T14:57:00.945Z,32.05
2023-01-30T15:00:12.177Z,31.80
2023-01-30T15:02:47.054Z,31.90
2023-01-30T15:05:18.984Z,32.63
2023-01-30T15:07:58.269Z,32.65
2023-01-30T15:10:38.562Z,32.40
2023-01-30T15:13:11.827Z,32.92
2023-01-30T15:16:05.359Z,32.53
2023-01-30T15:19:02.580Z,32.40
2023-01-30T15:21:57.714Z,34.72
2023-01-30T15:24:25.107Z,32.85
2023-01-30T15:26:58.300Z,34.03
2023-01-30T15:29:40.761Z,35.58
2023-01-30T15:35:01.216Z,32.63
2023-01-30T15:37:40.183Z,33.33
2023-01-30T15:40:17.962Z,34.70
2023-01-30T15:42:49.747Z,36.13
2023-01-30T15:45:35.913Z,38.10
2023-01-30T15:48:27.572Z,36.83
2023-01-30T15:50:59.270Z,35.80
2023-01-30T15:53:34.583Z,34.83
2023-01-30T15:56:06.914Z,35.85
2023-01-30T15:58:39.998Z,33.50
2023-01-30T16:01:08.220Z,35.72
2023-01-30T16:03:40.807Z,36.60
2023-01-30T16:06:24.586Z,35.47
2023-01-30T16:09:00.866Z,38.17
2023-01-30T16:11:42.732Z,34.72
2023-01-30T16:14:15.870Z,35.53
2023-01-30T16:16:45.309Z,34.67
2023-01-30T16:19:23.214Z,37.10
2023-01-30T16:21:50.760Z,36.67
2023-01-30T16:24:29.806Z,38.05
2023-01-30T16:27:01.754Z,38.22
2023-01-30T16:29:32.494Z,36.40
2023-01-30T16:32:00.370Z,38.97
2023-01-30T16:34:34.898Z,38.53
2023-01-30T16:37:20.180Z,40.65
2023-01-30T16:40:10.783Z,38.70
2023-01-30T16:42:38.305Z,40.42
2023-01-30T16:45:34.569Z,39.78
2023-01-30T16:48:34.483Z,49.05
2023-01-30T16:51:02.315Z,43.10
2023-01-30T16:53:32.391Z,47.67
2023-01-30T16:55:59.755Z,46.13
2023-01-30T16:58:34.723Z,48.95
2023-01-30T17:01:06.807Z,44.47
2023-01-30T17:06:16.172Z,43.45
2023-01-30T17:08:53.939Z,55.72
2023-01-30T17:11:37.702Z,54.17
2023-01-30T17:14:16.394Z,51.38
2023-01-30T17:16:46.162Z,47.22
2023-01-30T17:19:14.731Z,51.08
2023-01-30T17:21:49.764Z,51.03
2023-01-30T17:24:20.297Z,47.45
2023-01-30T17:26:50.777Z,44.97
2023-01-30T17:29:24.034Z,48.50
2023-01-30T17:31:57.491Z,47.42
2023-01-30T17:34:27.843Z,48.10
2023-01-30T17:36:56.219Z,45.90
2023-01-30T17:39:27.174Z,48.85
2023-01-30T17:41:55.358Z,46.78
2023-01-30T17:44:22.835Z,49.13
2023-01-30T17:46:50.340Z,46.72
2023-01-30T17:49:23.183Z,50.28
2023-01-30T17:51:51.813Z,50.90
2023-01-30T17:54:20.542Z,67.63
2023-01-30T17:56:53.665Z,68.80
2023-01-30T17:59:21.874Z,54.55
2023-01-30T18:01:51.627Z,58.10
2023-01-30T18:04:20.120Z,54.65
2023-01-30T18:06:50.526Z,51.53
2023-01-30T18:09:24.737Z,51.30
2023-01-30T18:11:52.165Z,51.72
2023-01-30T18:14:19.593Z,52.47
2023-01-30T18:16:47.628Z,52.78
2023-01-30T18:19:24.176Z,52.85
2023-01-30T18:21:51.771Z,54.00
2023-01-30T18:24:19.753Z,51.65
2023-01-30T18:26:47.608Z,54.50
2023-01-30T18:29:15.348Z,54.22
2023-01-30T18:31:42.914Z,64.72
2023-01-30T18:34:11.399Z,62.63
2023-01-30T18:36:39.256Z,55.78
2023-01-30T18:39:06.828Z,60.13
2023-01-30T18:41:35.457Z,55.20
2023-01-30T18:44:06.375Z,55.50
2023-01-30T18:46:34.387Z,63.35
2023-01-30T18:49:02.461Z,71.80
2023-01-30T18:51:43.548Z,133.85
2023-01-30T18:54:11.942Z,93.23
2023-01-30T18:56:40.053Z,64.88
2023-01-30T18:59:07.797Z,68.03
2023-01-30T19:01:38.940Z,80.47
2023-01-30T19:04:09.222Z,71.00
2023-01-30T19:06:39.192Z,63.85
2023-01-30T19:09:07.579Z,60.80
2023-01-30T19:11:53.814Z,73.38
2023-01-30T19:14:21.490Z,56.88
2023-01-30T19:16:51.351Z,54.50
2023-01-30T19:19:19.073Z,60.00
2023-01-30T19:21:47.741Z,67.65
2023-01-30T19:24:16.385Z,71.22
2023-01-30T19:26:44.254Z,65.13
2023-01-30T19:29:11.780Z,66.03
2023-01-30T19:31:39.385Z,68.72
2023-01-30T19:34:07.593Z,64.65
2023-01-30T19:36:36.177Z,64.32
2023-01-30T19:39:05.998Z,65.60
2023-01-30T19:41:37.264Z,64.47
2023-01-30T19:44:07.305Z,64.07
2023-01-30T19:46:35.390Z,58.67
2023-01-30T19:49:03.524Z,56.42
2023-01-30T19:51:33.437Z,59.85
2023-01-30T19:54:04.612Z,63.13
2023-01-30T19:56:33.308Z,49.37
2023-01-30T19:59:01.718Z,61.15
2023-01-30T20:01:32.755Z,89.85
2023-01-30T20:04:01.657Z,66.77
2023-01-30T20:06:32.050Z,73.18
2023-01-30T20:09:03.072Z,86.25
2023-01-30T20:11:31.013Z,79.18
2023-01-30T20:13:59.100Z,62.47
2023-01-30T20:16:29.462Z,68.20
2023-01-30T20:19:21.223Z,66.38
2023-01-30T20:21:48.724Z,65.43
2023-01-30T20:24:16.460Z,73.57
2023-01-30T20:26:47.865Z,65.50
2023-01-30T20:29:17.564Z,64.32
2023-01-30T20:31:45.149Z,66.05
2023-01-30T20:34:14.012Z,64.75
2023-01-30T20:36:41.865Z,60.80
2023-01-30T20:39:09.378Z,59.50
2023-01-30T20:41:37.766Z,62.42
2023-01-30T20:44:08.259Z,60.88
2023-01-30T20:46:43.965Z,57.72
2023-01-30T20:49:16.636Z,55.00
2023-01-30T20:51:44.532Z,55.38
2023-01-30T20:54:14.173Z,56.13
2023-01-30T20:56:44.585Z,61.95
2023-01-30T20:59:15.302Z,61.95
2023-01-30T21:01:44.094Z,61.65
2023-01-30T21:04:16.148Z,60.88
2023-01-30T21:09:17.212Z,57.85
2023-01-30T21:11:46.634Z,58.20
2023-01-30T21:14:16.253Z,61.97
2023-01-30T21:16:43.992Z,57.38
2023-01-30T21:19:15.123Z,63.47
2023-01-30T21:21:50.817Z,66.60
2023-01-30T21:24:23.753Z,64.97
2023-01-30T21:26:51.918Z,61.95
2023-01-30T21:29:22.091Z,60.35
2023-01-30T21:31:51.094Z,60.70
2023-01-30T21:34:18.753Z,59.25
2023-01-30T21:37:06.132Z,55.70
2023-01-30T21:39:52.314Z,58.40
2023-01-30T21:42:39.123Z,55.08
2023-01-30T21:45:07.324Z,54.40
2023-01-30T21:47:34.749Z,54.60
2023-01-30T21:50:02.220Z,59.85
2023-01-30T21:52:33.036Z,78.50
2023-01-30T21:55:00.769Z,56.60
2023-01-30T21:57:28.164Z,60.95
2023-01-30T21:59:57.138Z,66.47
2023-01-30T22:02:26.155Z,66.03
2023-01-30T22:04:54.827Z,66.45
2023-01-30T22:07:22.452Z,55.78
2023-01-30T22:09:49.955Z,57.97
2023-01-30T22:12:17.345Z,69.45
2023-01-30T22:14:45.362Z,62.95
2023-01-30T22:17:12.907Z,70.57
2023-01-30T22:19:40.867Z,80.10
2023-01-30T22:22:08.281Z,81.47
2023-01-30T22:24:36.242Z,68.57
2023-01-30T22:27:03.829Z,55.90
2023-01-30T22:29:31.341Z,60.40
2023-01-30T22:31:58.785Z,80.38
2023-01-30T22:34:26.247Z,65.80
2023-01-30T22:36:54.352Z,56.65
2023-01-30T22:39:22.641Z,51.53
2023-01-30T22:41:50.400Z,52.50
2023-01-30T22:44:17.806Z,51.00
2023-01-30T22:46:45.312Z,54.35
2023-01-30T22:49:12.772Z,57.15
2023-01-30T22:51:41.053Z,52.75
2023-01-30T22:54:15.554Z,52.35
2023-01-30T22:56:45.510Z,59.08
2023-01-30T22:59:13.292Z,58.47
2023-01-30T23:01:42.871Z,52.85
2023-01-30T23:04:28.502Z,51.47
2023-01-30T23:06:56.547Z,48.47
2023-01-30T23:09:24.147Z,50.13
2023-01-30T23:12:15.376Z,52.97
2023-01-30T23:14:43.062Z,51.08
2023-01-30T23:17:29.128Z,50.75
2023-01-30T23:19:57.385Z,51.38
2023-01-30T23:22:24.889Z,51.03
2023-01-30T23:24:52.611Z,51.10
2023-01-30T23:27:21.343Z,54.28
2023-01-30T23:29:48.928Z,50.92
2023-01-30T23:32:19.860Z,50.97
2023-01-30T23:34:47.936Z,52.72
2023-01-30T23:37:15.811Z,52.70
2023-01-30T23:39:43.493Z,52.80
2023-01-30T23:42:10.914Z,52.70
2023-01-30T23:44:38.809Z,53.92
2023-01-30T23:47:06.286Z,52.83
2023-01-30T23:49:33.668Z,54.13
2023-01-30T23:52:01.074Z,52.85
2023-01-30T23:54:28.461Z,52.42
2023-01-30T23:56:55.869Z,54.80
2023-01-30T23:59:23.297Z,52.13
